Time;durP1;ratioP1;P1;durP2;ratioP2;P2;SDS_P1;SDS_P2;PMS_P1;PMS_P2;Temp;Humidity;BMP_temperature;BMP_pressure;BME280_temperature;BME280_humidity;BME280_pressure;Samples;Min_cycle;Max_cycle;Signal;HPM_P1;HPM_P2
2023/11/15 00:01:51;;;;;;;25.23;22.92;;;;;;;;;;5080671;28;20027;-64
2023/11/15 00:04:19;;;;;;;25.75;23.45;;;;;;;;;;5066823;28;20054;-65
2023/11/15 00:06:45;;;;;;;24.63;22.40;;;;;;;;;;5083525;28;20027;-64
2023/11/15 00:09:12;;;;;;;23.48;21.15;;;;;;;;;;5085338;28;20269;-65
2023/11/15 00:11:38;;;;;;;22.80;20.77;;;;;;;;;;5083747;28;20115;-66
2023/11/15 00:14:04;;;;;;;22.52;20.52;;;;;;;;;;5085298;28;20031;-65
2023/11/15 00:16:30;;;;;;;21.92;19.92;;;;;;;;;;5084924;28;20016;-65
2023/11/15 00:18:56;;;;;;;25.08;21.55;;;;;;;;;;5085364;28;20048;-64
2023/11/15 00:21:22;;;;;;;21.20;19.30;;;;;;;;;;5076258;28;20017;-64
2023/11/15 00:23:48;;;;;;;21.25;19.35;;;;;;;;;;5077991;28;20537;-65
2023/11/15 00:26:14;;;;;;;22.85;20.65;;;;;;;;;;5078958;28;20048;-64
2023/11/15 00:28:40;;;;;;;31.38;20.23;;;;;;;;;;5080137;28;20036;-65
2023/11/15 00:31:06;;;;;;;20.33;18.42;;;;;;;;;;5083464;28;20115;-64
2023/11/15 00:33:32;;;;;;;23.83;21.52;;;;;;;;;;5083629;28;20039;-64
2023/11/15 00:35:59;;;;;;;22.98;20.67;;;;;;;;;;5082711;28;20020;-65
2023/11/15 00:38:27;;;;;;;19.40;17.60;;;;;;;;;;5083189;28;20016;-65
2023/11/15 00:40:53;;;;;;;21.48;19.48;;;;;;;;;;5082004;28;20486;-65
2023/11/15 00:43:19;;;;;;;22.98;20.58;;;;;;;;;;5083090;28;20036;-64
2023/11/15 00:45:45;;;;;;;20.30;18.30;;;;;;;;;;5079402;28;20032;-64
2023/11/15 00:48:14;;;;;;;20.20;18.20;;;;;;;;;;5079821;28;20016;-64
2023/11/15 00:50:40;;;;;;;19.40;17.50;;;;;;;;;;5080546;28;20024;-65
2023/11/15 00:53:07;;;;;;;20.90;18.90;;;;;;;;;;5084391;28;20469;-65
2023/11/15 00:55:33;;;;;;;18.65;16.85;;;;;;;;;;5082022;28;20042;-65
2023/11/15 00:57:59;;;;;;;18.45;16.65;;;;;;;;;;5082382;28;20485;-65
2023/11/15 01:00:26;;;;;;;19.10;17.13;;;;;;;;;;5082539;28;20040;-65
2023/11/15 01:02:55;;;;;;;20.95;18.98;;;;;;;;;;5082453;28;20017;-66
2023/11/15 01:05:21;;;;;;;20.13;18.23;;;;;;;;;;5082797;28;20054;-65
2023/11/15 01:07:50;;;;;;;18.38;16.58;;;;;;;;;;5081716;28;20452;-65
2023/11/15 01:10:18;;;;;;;19.65;16.70;;;;;;;;;;5080266;28;20101;-66
2023/11/15 01:12:44;;;;;;;16.77;15.07;;;;;;;;;;5079274;28;20620;-65
2023/11/15 01:15:11;;;;;;;16.90;15.20;;;;;;;;;;5080024;28;20095;-65
2023/11/15 01:17:38;;;;;;;16.08;14.38;;;;;;;;;;5078644;28;20488;-64
2023/11/15 01:20:04;;;;;;;15.85;14.15;;;;;;;;;;5079644;28;20104;-66
2023/11/15 01:22:30;;;;;;;16.35;14.65;;;;;;;;;;5080815;28;20055;-66
2023/11/15 01:24:56;;;;;;;17.45;13.98;;;;;;;;;;5079199;28;20386;-64
2023/11/15 01:27:22;;;;;;;19.77;14.73;;;;;;;;;;5079838;28;20032;-65
2023/11/15 01:29:50;;;;;;;16.02;13.57;;;;;;;;;;5077935;28;20531;-65
2023/11/15 01:32:15;;;;;;;15.48;12.85;;;;;;;;;;5081598;28;20032;-65
2023/11/15 01:34:41;;;;;;;15.10;11.63;;;;;;;;;;5079666;28;20037;-65
2023/11/15 01:37:07;;;;;;;14.13;10.25;;;;;;;;;;5080312;28;20552;-65
2023/11/15 01:39:33;;;;;;;19.00;11.55;;;;;;;;;;5080912;28;20029;-64
2023/11/15 01:41:59;;;;;;;14.65;10.70;;;;;;;;;;5083550;28;20041;-65
2023/11/15 01:44:25;;;;;;;14.10;10.02;;;;;;;;;;5084863;28;20033;-66
2023/11/15 01:46:53;;;;;;;16.65;11.05;;;;;;;;;;5084133;28;20051;-65
2023/11/15 01:49:20;;;;;;;14.00;9.60;;;;;;;;;;5082905;28;20063;-67
2023/11/15 01:51:46;;;;;;;13.63;8.73;;;;;;;;;;5084319;28;20047;-64
2023/11/15 01:54:13;;;;;;;13.70;8.70;;;;;;;;;;5084536;28;20032;-65
2023/11/15 01:56:39;;;;;;;13.20;7.88;;;;;;;;;;5084565;28;20083;-65
2023/11/15 01:59:06;;;;;;;13.70;8.68;;;;;;;;;;5084926;28;20028;-66
2023/11/15 02:01:32;;;;;;;13.65;8.10;;;;;;;;;;5083633;28;20072;-65
2023/11/15 02:03:58;;;;;;;14.20;9.27;;;;;;;;;;5082950;28;20024;-65
2023/11/15 02:06:32;;;;;;;14.52;8.70;;;;;;;;;;5084126;28;20303;-66
2023/11/15 02:08:59;;;;;;;13.02;7.70;;;;;;;;;;5083352;28;20169;-65
2023/11/15 02:11:25;;;;;;;13.93;8.43;;;;;;;;;;5081088;28;20021;-65
2023/11/15 02:13:51;;;;;;;14.93;8.05;;;;;;;;;;5082235;28;20432;-65
2023/11/15 02:16:17;;;;;;;19.33;8.52;;;;;;;;;;5082508;28;20024;-66
2023/11/15 02:18:44;;;;;;;12.70;7.65;;;;;;;;;;5082210;28;20029;-66
2023/11/15 02:21:10;;;;;;;12.57;7.35;;;;;;;;;;5081957;28;20020;-65
2023/11/15 02:23:43;;;;;;;18.65;11.32;;;;;;;;;;5080591;28;20016;-66
2023/11/15 02:26:09;;;;;;;16.20;8.02;;;;;;;;;;5080767;28;20050;-62
2023/11/15 02:28:35;;;;;;;13.85;8.65;;;;;;;;;;5081942;28;20028;-65
2023/11/15 02:31:01;;;;;;;13.40;8.15;;;;;;;;;;5081952;28;20020;-64
2023/11/15 02:33:27;;;;;;;14.20;8.40;;;;;;;;;;5078874;28;20117;-65
2023/11/15 02:35:53;;;;;;;13.38;8.00;;;;;;;;;;5076227;28;20021;-64
2023/11/15 02:38:19;;;;;;;12.10;7.20;;;;;;;;;;5077820;28;20017;-65
2023/11/15 02:40:45;;;;;;;21.17;9.15;;;;;;;;;;5078223;28;20397;-65
2023/11/15 02:43:12;;;;;;;12.60;7.85;;;;;;;;;;5080240;28;20036;-65
2023/11/15 02:45:38;;;;;;;12.95;8.00;;;;;;;;;;5079686;28;20017;-65
2023/11/15 02:48:04;;;;;;;13.02;7.45;;;;;;;;;;5079851;28;20031;-65
2023/11/15 02:50:30;;;;;;;15.68;9.00;;;;;;;;;;5078706;28;20024;-66
2023/11/15 02:52:56;;;;;;;12.15;7.00;;;;;;;;;;5081318;28;20456;-65
2023/11/15 02:55:23;;;;;;;14.13;7.60;;;;;;;;;;5082687;28;20024;-65
2023/11/15 02:57:48;;;;;;;20.27;9.18;;;;;;;;;;5082859;28;20104;-66
2023/11/15 03:00:16;;;;;;;17.73;10.05;;;;;;;;;;5081694;28;20042;-64
2023/11/15 03:02:42;;;;;;;15.60;8.80;;;;;;;;;;5082201;28;20032;-65
2023/11/15 03:05:09;;;;;;;14.90;8.55;;;;;;;;;;5082586;28;20040;-65
2023/11/15 03:07:35;;;;;;;12.35;6.97;;;;;;;;;;5081410;28;20528;-65
2023/11/15 03:10:01;;;;;;;20.90;7.88;;;;;;;;;;5080461;28;20032;-65
2023/11/15 03:12:27;;;;;;;11.20;6.60;;;;;;;;;;5081348;28;20021;-65
2023/11/15 03:14:53;;;;;;;11.00;6.40;;;;;;;;;;5082393;28;20032;-65
2023/11/15 03:17:19;;;;;;;11.55;6.82;;;;;;;;;;5081541;28;20028;-65
2023/11/15 03:19:45;;;;;;;11.88;6.55;;;;;;;;;;5080787;28;20028;-66
2023/11/15 03:22:14;;;;;;;10.73;6.25;;;;;;;;;;5079001;28;20048;-65
2023/11/15 03:24:42;;;;;;;15.20;7.85;;;;;;;;;;5077981;28;20119;-64
2023/11/15 03:27:08;;;;;;;10.95;6.43;;;;;;;;;;5080813;28;20032;-65
2023/11/15 03:29:34;;;;;;;15.70;7.57;;;;;;;;;;5080484;28;20032;-66
2023/11/15 03:32:00;;;;;;;13.23;6.68;;;;;;;;;;5080594;28;20390;-65
2023/11/15 03:34:26;;;;;;;11.95;6.60;;;;;;;;;;5080798;28;20034;-65
2023/11/15 03:36:53;;;;;;;11.18;6.50;;;;;;;;;;5079453;28;20441;-64
2023/11/15 03:39:19;;;;;;;13.80;6.72;;;;;;;;;;5080463;28;20073;-64
2023/11/15 03:41:46;;;;;;;12.27;7.05;;;;;;;;;;5078982;28;20064;-65
2023/11/15 03:44:12;;;;;;;11.68;6.95;;;;;;;;;;5078906;28;20028;-65
2023/11/15 03:46:38;;;;;;;11.40;6.30;;;;;;;;;;5079875;28;20021;-65
2023/11/15 03:49:05;;;;;;;10.95;6.20;;;;;;;;;;5079775;28;20021;-63
2023/11/15 03:51:31;;;;;;;10.15;5.82;;;;;;;;;;5078816;28;20089;-65
2023/11/15 03:53:57;;;;;;;10.60;6.22;;;;;;;;;;5078317;28;20107;-65
2023/11/15 03:56:23;;;;;;;10.80;6.40;;;;;;;;;;5078428;28;20055;-64
2023/11/15 03:58:49;;;;;;;11.00;6.40;;;;;;;;;;5078806;28;20032;-65
2023/11/15 04:01:15;;;;;;;13.02;7.65;;;;;;;;;;5078972;28;20075;-65
2023/11/15 04:03:41;;;;;;;11.20;6.60;;;;;;;;;;5078835;28;20171;-65
2023/11/15 04:06:09;;;;;;;11.10;6.50;;;;;;;;;;5079447;28;20099;-65
2023/11/15 04:08:36;;;;;;;12.02;6.90;;;;;;;;;;5079177;28;20020;-64
2023/11/15 04:11:02;;;;;;;10.65;6.25;;;;;;;;;;5077608;28;20031;-64
2023/11/15 04:13:28;;;;;;;11.07;6.45;;;;;;;;;;5079841;28;20017;-66
2023/11/15 04:15:54;;;;;;;10.52;6.10;;;;;;;;;;5078455;28;20035;-65
2023/11/15 04:18:22;;;;;;;10.85;6.30;;;;;;;;;;5079124;28;20052;-65
2023/11/15 04:20:48;;;;;;;11.70;6.70;;;;;;;;;;5078541;28;20500;-65
2023/11/15 04:23:14;;;;;;;10.45;6.10;;;;;;;;;;5077460;28;20119;-64
2023/11/15 04:25:40;;;;;;;12.30;7.45;;;;;;;;;;5077014;28;20016;-64
2023/11/15 04:28:06;;;;;;;11.05;6.47;;;;;;;;;;5079018;28;20525;-64
2023/11/15 04:30:32;;;;;;;11.55;6.75;;;;;;;;;;5078593;28;20028;-66
2023/11/15 04:32:59;;;;;;;10.50;6.10;;;;;;;;;;5078646;28;20031;-64
2023/11/15 04:35:25;;;;;;;10.73;6.10;;;;;;;;;;5078763;28;20025;-67
2023/11/15 04:37:51;;;;;;;10.70;6.22;;;;;;;;;;5079085;28;20016;-66
2023/11/15 04:40:18;;;;;;;10.40;6.00;;;;;;;;;;5077100;28;20059;-66
2023/11/15 04:42:44;;;;;;;10.10;5.93;;;;;;;;;;5078801;28;20025;-63
2023/11/15 04:45:10;;;;;;;11.27;6.38;;;;;;;;;;5080506;28;20117;-65
2023/11/15 04:47:36;;;;;;;11.05;6.63;;;;;;;;;;5075047;28;20115;-64
2023/11/15 04:50:02;;;;;;;13.18;9.32;;;;;;;;;;5075706;28;20070;-66
2023/11/15 04:52:28;;;;;;;10.00;5.80;;;;;;;;;;5076014;28;20076;-64
2023/11/15 04:54:54;;;;;;;10.20;6.00;;;;;;;;;;5077887;28;20031;-66
2023/11/15 04:57:23;;;;;;;11.57;6.43;;;;;;;;;;5078702;28;20031;-64
2023/11/15 04:59:51;;;;;;;19.77;6.40;;;;;;;;;;5078172;28;20073;-65
2023/11/15 05:02:17;;;;;;;10.15;6.00;;;;;;;;;;5077560;28;20151;-64
2023/11/15 05:04:43;;;;;;;15.68;11.77;;;;;;;;;;5078234;28;20051;-64
2023/11/15 05:07:11;;;;;;;11.30;6.95;;;;;;;;;;5077497;28;20051;-67
2023/11/15 05:09:37;;;;;;;10.20;6.00;;;;;;;;;;5077076;28;20037;-65
2023/11/15 05:12:03;;;;;;;10.90;6.40;;;;;;;;;;5077699;28;20100;-66
2023/11/15 05:14:29;;;;;;;11.38;6.60;;;;;;;;;;5077794;28;20031;-65
2023/11/15 05:16:55;;;;;;;11.30;6.60;;;;;;;;;;5080710;28;20028;-65
2023/11/15 05:19:21;;;;;;;11.50;6.50;;;;;;;;;;5080951;28;20128;-65
2023/11/15 05:21:47;;;;;;;11.80;6.75;;;;;;;;;;5080777;28;20208;-65
2023/11/15 05:24:13;;;;;;;11.52;6.60;;;;;;;;;;5081623;28;20071;-65
2023/11/15 05:26:39;;;;;;;11.50;6.63;;;;;;;;;;5080032;28;20028;-66
2023/11/15 05:29:05;;;;;;;12.65;8.95;;;;;;;;;;5079610;28;20051;-65
2023/11/15 05:31:31;;;;;;;11.32;6.63;;;;;;;;;;5079539;28;20079;-66
2023/11/15 05:33:57;;;;;;;11.90;6.50;;;;;;;;;;5080936;28;20474;-65
2023/11/15 05:36:23;;;;;;;11.38;6.70;;;;;;;;;;5081027;28;20040;-66
2023/11/15 05:38:49;;;;;;;12.52;7.25;;;;;;;;;;5079510;28;20025;-66
2023/11/15 05:41:15;;;;;;;12.65;8.00;;;;;;;;;;5079037;28;20027;-65
2023/11/15 05:43:41;;;;;;;12.18;7.07;;;;;;;;;;5081099;28;20077;-65
2023/11/15 05:46:07;;;;;;;11.82;6.90;;;;;;;;;;5082115;28;20071;-66
2023/11/15 05:48:34;;;;;;;12.50;7.30;;;;;;;;;;5081708;28;20161;-66
2023/11/15 05:51:01;;;;;;;13.15;7.70;;;;;;;;;;5079463;28;20039;-64
2023/11/15 05:53:27;;;;;;;14.25;7.68;;;;;;;;;;5080772;28;20024;-65
2023/11/15 05:55:54;;;;;;;12.82;7.43;;;;;;;;;;5080367;28;20039;-65
2023/11/15 05:58:19;;;;;;;13.35;7.93;;;;;;;;;;5080120;28;20028;-66
2023/11/15 06:00:45;;;;;;;13.80;9.40;;;;;;;;;;5082346;28;20039;-66
2023/11/15 06:03:11;;;;;;;14.40;10.82;;;;;;;;;;5084238;28;20017;-65
2023/11/15 06:05:38;;;;;;;16.73;15.02;;;;;;;;;;5084267;28;20500;-65
2023/11/15 06:08:04;;;;;;;20.10;18.20;;;;;;;;;;5083942;28;20046;-65
2023/11/15 06:10:30;;;;;;;21.58;19.58;;;;;;;;;;5084528;28;20096;-65
2023/11/15 06:12:56;;;;;;;22.75;20.65;;;;;;;;;;5085302;28;20029;-65
2023/11/15 06:15:23;;;;;;;24.17;21.98;;;;;;;;;;5084865;28;20056;-65
2023/11/15 06:17:52;;;;;;;24.13;21.92;;;;;;;;;;5081348;28;20116;-64
2023/11/15 06:20:18;;;;;;;24.20;22.00;;;;;;;;;;5082297;28;20032;-64
2023/11/15 06:22:46;;;;;;;24.02;21.83;;;;;;;;;;5085323;28;20033;-64
2023/11/15 06:25:18;;;;;;;24.60;22.40;;;;;;;;;;5083782;28;20055;-65
2023/11/15 06:27:44;;;;;;;25.20;22.95;;;;;;;;;;5082878;28;20033;-66
2023/11/15 06:30:12;;;;;;;24.80;22.60;;;;;;;;;;5083495;28;20069;-64
2023/11/15 06:32:38;;;;;;;25.33;23.02;;;;;;;;;;5083169;28;20043;-65
2023/11/15 06:35:05;;;;;;;25.25;22.95;;;;;;;;;;5084336;28;20097;-63
2023/11/15 06:37:33;;;;;;;25.17;22.88;;;;;;;;;;5081864;28;20029;-63
2023/11/15 06:39:59;;;;;;;;;;;;;;;;;;5082317;28;20043;-63
2023/11/15 06:42:25;;;;;;;25.73;23.42;;;;;;;;;;5083378;28;20003;-61
2023/11/15 06:44:51;;;;;;;26.25;23.85;;;;;;;;;;5082696;28;20028;-62
2023/11/15 06:47:19;;;;;;;25.88;23.58;;;;;;;;;;5083542;28;20031;-61
2023/11/15 06:49:45;;;;;;;28.08;25.67;;;;;;;;;;5081321;28;20021;-60
2023/11/15 06:52:11;;;;;;;27.17;24.85;;;;;;;;;;5082786;28;20386;-60
2023/11/15 06:54:37;;;;;;;26.58;24.27;;;;;;;;;;5081281;28;20020;-63
2023/11/15 06:57:03;;;;;;;27.67;25.27;;;;;;;;;;5080678;28;20039;-62
2023/11/15 06:59:29;;;;;;;26.73;24.42;;;;;;;;;;5076965;28;20016;-64
2023/11/15 07:01:55;;;;;;;27.05;24.65;;;;;;;;;;5059624;28;20039;-59
2023/11/15 07:04:22;;;;;;;26.52;24.23;;;;;;;;;;5079583;28;20017;-63
2023/11/15 07:06:48;;;;;;;26.45;24.15;;;;;;;;;;5080032;28;20025;-62
2023/11/15 07:09:15;;;;;;;25.80;23.60;;;;;;;;;;5078287;28;20044;-61
2023/11/15 07:11:48;;;;;;;25.23;23.02;;;;;;;;;;5079704;28;20039;-63
2023/11/15 07:14:14;;;;;;;24.75;22.55;;;;;;;;;;5079247;28;20016;-62
2023/11/15 07:16:59;;;;;;;24.52;22.33;;;;;;;;;;5080379;28;20044;-63
2023/11/15 07:19:25;;;;;;;23.88;21.77;;;;;;;;;;5080539;28;20028;-62
2023/11/15 07:21:54;;;;;;;23.67;21.58;;;;;;;;;;5078469;28;20025;-62
2023/11/15 07:24:20;;;;;;;;;;;;;;;;;;5080614;28;20031;-62
2023/11/15 07:26:46;;;;;;;23.17;21.08;;;;;;;;;;5080794;28;20182;-59
2023/11/15 07:29:13;;;;;;;23.23;21.13;;;;;;;;;;5079335;28;20024;-60
2023/11/15 07:31:43;;;;;;;24.40;22.20;;;;;;;;;;5077335;28;20021;-63
2023/11/15 07:34:10;;;;;;;23.80;21.60;;;;;;;;;;5078061;28;20024;-64
2023/11/15 07:36:36;;;;;;;24.30;22.10;;;;;;;;;;5081051;28;20020;-65
2023/11/15 07:39:06;;;;;;;24.75;22.55;;;;;;;;;;5072092;28;20048;-63
2023/11/15 07:41:35;;;;;;;23.65;21.55;;;;;;;;;;5078222;28;20496;-64
2023/11/15 07:44:01;;;;;;;24.50;22.30;;;;;;;;;;5062881;28;20029;-64
2023/11/15 07:46:29;;;;;;;26.17;23.95;;;;;;;;;;5043664;28;20031;-60
2023/11/15 07:48:56;;;;;;;25.17;22.98;;;;;;;;;;5078159;28;20067;-62
2023/11/15 07:51:22;;;;;;;25.30;23.10;;;;;;;;;;5077961;28;20021;-63
2023/11/15 07:53:49;;;;;;;25.13;22.92;;;;;;;;;;5079670;28;20021;-64
2023/11/15 07:56:18;;;;;;;25.48;23.17;;;;;;;;;;5066180;28;20514;-63
2023/11/15 07:58:45;;;;;;;24.50;22.30;;;;;;;;;;5058570;28;20025;-63
2023/11/15 08:01:11;;;;;;;25.45;23.15;;;;;;;;;;5058209;28;20017;-63
2023/11/15 08:03:38;;;;;;;25.58;23.27;;;;;;;;;;5041809;28;20559;-64
2023/11/15 08:06:05;;;;;;;26.10;23.80;;;;;;;;;;5041936;28;20037;-63
2023/11/15 08:08:32;;;;;;;26.27;23.98;;;;;;;;;;5058378;28;20028;-63
2023/11/15 08:10:58;;;;;;;25.50;23.20;;;;;;;;;;5058550;28;20529;-63
2023/11/15 08:13:24;;;;;;;23.45;21.35;;;;;;;;;;5072902;28;20126;-62
2023/11/15 08:15:50;;;;;;;23.38;21.27;;;;;;;;;;5079605;28;20155;-63
2023/11/15 08:18:17;;;;;;;22.25;20.25;;;;;;;;;;5075006;28;20070;-60
2023/11/15 08:20:45;;;;;;;22.63;20.52;;;;;;;;;;5068551;28;20021;-50
2023/11/15 08:23:12;;;;;;;22.92;20.83;;;;;;;;;;5069061;28;20447;-57
2023/11/15 08:25:41;;;;;;;24.50;22.30;;;;;;;;;;5051291;28;20041;-51
2023/11/15 08:28:07;;;;;;;22.60;20.50;;;;;;;;;;5051552;28;20040;-52
2023/11/15 08:30:33;;;;;;;22.35;20.35;;;;;;;;;;5068413;28;20471;-57
2023/11/15 08:32:59;;;;;;;22.27;20.27;;;;;;;;;;5068968;28;20103;-54
2023/11/15 08:35:26;;;;;;;22.15;20.15;;;;;;;;;;5050619;28;20457;-51
2023/11/15 08:37:52;;;;;;;22.08;20.08;;;;;;;;;;5068737;28;20025;-51
2023/11/15 08:40:24;;;;;;;23.13;21.02;;;;;;;;;;5048923;28;20028;-51
2023/11/15 08:42:51;;;;;;;22.85;20.75;;;;;;;;;;5068634;28;20071;-47
2023/11/15 08:45:18;;;;;;;22.77;20.77;;;;;;;;;;5067046;28;20020;-55
2023/11/15 08:47:44;;;;;;;22.88;20.77;;;;;;;;;;5068345;28;20025;-53
2023/11/15 08:50:10;;;;;;;22.50;20.40;;;;;;;;;;5066801;28;20028;-54
2023/11/15 08:52:39;;;;;;;23.30;21.20;;;;;;;;;;5068316;28;20032;-52
2023/11/15 08:55:08;;;;;;;22.70;20.60;;;;;;;;;;5068391;28;20607;-56
2023/11/15 08:57:35;;;;;;;23.77;21.67;;;;;;;;;;5069860;28;20021;-58
2023/11/15 09:00:03;;;;;;;23.55;21.45;;;;;;;;;;5067284;28;20037;-51
2023/11/15 09:02:30;;;;;;;25.70;23.40;;;;;;;;;;5066089;28;20074;-51
2023/11/15 09:04:57;;;;;;;23.97;21.77;;;;;;;;;;5068469;28;20371;-53
2023/11/15 09:07:23;;;;;;;24.30;22.10;;;;;;;;;;5068350;28;20044;-54
2023/11/15 09:09:49;;;;;;;25.05;22.85;;;;;;;;;;5067651;28;20115;-50
2023/11/15 09:12:17;;;;;;;25.30;23.10;;;;;;;;;;5068225;28;20033;-50
2023/11/15 09:14:43;;;;;;;;;;;;;;;;;;5068940;28;20021;-55
2023/11/15 09:17:16;;;;;;;28.48;25.98;;;;;;;;;;5069957;28;19950;-50
2023/11/15 09:19:46;;;;;;;26.98;24.67;;;;;;;;;;5063751;28;20027;-52
2023/11/15 09:22:13;;;;;;;26.48;24.17;;;;;;;;;;5067040;28;20024;-48
2023/11/15 09:24:39;;;;;;;25.73;23.52;;;;;;;;;;5068870;28;20028;-54
2023/11/15 09:27:06;;;;;;;26.90;24.60;;;;;;;;;;5068584;28;20059;-49
2023/11/15 09:29:33;;;;;;;26.40;24.10;;;;;;;;;;5068588;28;20021;-49
2023/11/15 09:32:00;;;;;;;26.48;24.17;;;;;;;;;;5068263;28;20024;-55
2023/11/15 09:34:26;;;;;;;26.75;24.45;;;;;;;;;;5068074;28;20095;-53
2023/11/15 09:36:52;;;;;;;27.08;24.77;;;;;;;;;;5068634;28;20016;-50
2023/11/15 09:39:18;;;;;;;27.23;24.92;;;;;;;;;;5067708;28;20020;-52
2023/11/15 09:41:53;;;;;;;26.88;24.58;;;;;;;;;;5067846;28;20091;-51
2023/11/15 09:44:20;;;;;;;27.35;25.00;;;;;;;;;;5067085;28;20078;-52
2023/11/15 09:46:46;;;;;;;27.60;25.20;;;;;;;;;;5068015;28;20036;-54
2023/11/15 09:49:15;;;;;;;26.95;24.65;;;;;;;;;;5067802;28;20021;-51
2023/11/15 09:51:41;;;;;;;26.55;24.25;;;;;;;;;;5049189;28;20025;-52
2023/11/15 09:54:07;;;;;;;26.75;24.45;;;;;;;;;;5067804;28;20045;-53
2023/11/15 09:56:34;;;;;;;26.77;24.48;;;;;;;;;;5067761;28;20497;-53
2023/11/15 09:59:00;;;;;;;26.67;24.38;;;;;;;;;;5067723;28;20107;-52
2023/11/15 10:01:29;;;;;;;26.45;24.15;;;;;;;;;;5068917;28;20035;-52
2023/11/15 10:03:55;;;;;;;26.35;24.05;;;;;;;;;;5070486;28;20563;-57
2023/11/15 10:06:24;;;;;;;25.80;23.60;;;;;;;;;;5042384;28;20036;-51
2023/11/15 10:08:53;;;;;;;25.75;23.55;;;;;;;;;;5060382;28;20497;-53
2023/11/15 10:11:24;;;;;;;23.98;21.88;;;;;;;;;;5059376;28;20082;-53
2023/11/15 10:13:51;;;;;;;23.65;21.55;;;;;;;;;;5060516;28;20456;-51
2023/11/15 10:16:24;;;;;;;23.33;21.23;;;;;;;;;;5061854;28;20032;-52
2023/11/15 10:18:51;;;;;;;22.58;20.58;;;;;;;;;;5043417;28;20021;-56
2023/11/15 10:21:19;;;;;;;22.02;20.02;;;;;;;;;;5063862;28;20409;-53
2023/11/15 10:23:45;;;;;;;22.02;20.02;;;;;;;;;;5070586;28;20648;-54
2023/11/15 10:26:12;;;;;;;22.30;20.30;;;;;;;;;;5071040;28;20032;-51
2023/11/15 10:28:43;;;;;;;22.60;20.60;;;;;;;;;;5053015;28;20059;-54
2023/11/15 10:31:14;;;;;;;22.23;20.23;;;;;;;;;;5070427;28;20467;-54
2023/11/15 10:33:45;;;;;;;22.63;20.63;;;;;;;;;;5070828;28;20142;-55
2023/11/15 10:36:19;;;;;;;22.00;20.00;;;;;;;;;;5070675;28;20025;-53
2023/11/15 10:38:46;;;;;;;22.20;20.20;;;;;;;;;;5070623;28;20028;-55
2023/11/15 10:41:17;;;;;;;21.88;19.88;;;;;;;;;;5051994;28;20104;-54
2023/11/15 10:43:43;;;;;;;20.95;19.05;;;;;;;;;;5070513;28;20040;-55
2023/11/15 10:46:12;;;;;;;20.58;18.67;;;;;;;;;;5070999;28;20070;-57
2023/11/15 10:48:39;;;;;;;19.55;17.70;;;;;;;;;;5070701;28;20024;-52
2023/11/15 10:51:13;;;;;;;18.48;16.67;;;;;;;;;;5070343;28;20458;-52
2023/11/15 10:53:40;;;;;;;17.98;16.17;;;;;;;;;;5071040;28;20061;-53
2023/11/15 10:56:07;;;;;;;18.80;17.00;;;;;;;;;;5071012;28;20028;-48
2023/11/15 10:58:34;;;;;;;17.80;16.00;;;;;;;;;;5071323;28;20486;-55
2023/11/15 11:01:01;;;;;;;17.15;15.45;;;;;;;;;;5070430;28;20024;-52
2023/11/15 11:03:28;;;;;;;17.58;15.77;;;;;;;;;;5069763;28;20051;-55
2023/11/15 11:06:15;;;;;;;16.73;15.02;;;;;;;;;;5071071;28;20051;-55
2023/11/15 11:08:41;;;;;;;16.70;15.00;;;;;;;;;;5071198;28;20036;-60
2023/11/15 11:11:17;;;;;;;16.05;14.35;;;;;;;;;;5070358;28;20418;-57
2023/11/15 11:13:45;;;;;;;16.60;14.90;;;;;;;;;;5069960;28;20017;-56
2023/11/15 11:16:29;;;;;;;15.88;14.18;;;;;;;;;;5070636;28;20027;-57
2023/11/15 11:19:17;;;;;;;15.30;13.20;;;;;;;;;;5070776;28;20036;-55
2023/11/15 11:21:43;;;;;;;;;;;;;;;;;;5070806;28;20024;-57
2023/11/15 11:24:12;;;;;;;16.63;13.82;;;;;;;;;;5070296;28;19912;-57
2023/11/15 11:26:38;;;;;;;26.48;14.00;;;;;;;;;;5070500;28;20016;-54
2023/11/15 11:29:04;;;;;;;15.20;12.45;;;;;;;;;;5071292;28;20033;-56
2023/11/15 11:31:30;;;;;;;14.82;11.60;;;;;;;;;;5074772;28;20024;-57
2023/11/15 11:34:24;;;;;;;16.02;10.27;;;;;;;;;;5054836;28;20020;-57
2023/11/15 11:36:53;;;;;;;13.43;8.15;;;;;;;;;;5066970;28;20063;-57
2023/11/15 11:39:20;;;;;;;11.90;6.90;;;;;;;;;;5068816;28;20051;-59
2023/11/15 11:41:48;;;;;;;14.45;7.88;;;;;;;;;;5051485;28;20024;-56
2023/11/15 11:44:14;;;;;;;13.00;7.65;;;;;;;;;;5069711;28;20127;-58
2023/11/15 11:46:43;;;;;;;17.52;8.35;;;;;;;;;;5051363;28;20035;-58
2023/11/15 11:49:09;;;;;;;12.98;8.10;;;;;;;;;;5069963;28;20103;-58
2023/11/15 11:51:35;;;;;;;12.98;7.28;;;;;;;;;;5069994;28;20069;-54
2023/11/15 11:54:02;;;;;;;16.10;9.05;;;;;;;;;;5069528;28;20473;-55
2023/11/15 11:56:28;;;;;;;16.85;8.93;;;;;;;;;;5069989;28;20036;-59
2023/11/15 11:58:54;;;;;;;15.43;7.82;;;;;;;;;;5070059;28;20154;-57
2023/11/15 12:01:21;;;;;;;14.73;8.40;;;;;;;;;;5052149;28;20393;-56
2023/11/15 12:03:48;;;;;;;12.68;7.30;;;;;;;;;;5070010;28;20024;-58
2023/11/15 12:06:14;;;;;;;15.80;7.40;;;;;;;;;;5070152;28;20233;-58
2023/11/15 12:08:41;;;;;;;14.57;6.90;;;;;;;;;;5070066;28;20028;-56
2023/11/15 12:11:10;;;;;;;13.77;7.53;;;;;;;;;;5069490;28;20020;-58
2023/11/15 12:13:43;;;;;;;13.95;6.85;;;;;;;;;;5051444;28;20044;-58
2023/11/15 12:16:19;;;;;;;12.45;7.07;;;;;;;;;;5049470;28;20375;-59
2023/11/15 12:19:03;;;;;;;14.00;8.20;;;;;;;;;;5049851;28;20032;-58
2023/11/15 12:21:33;;;;;;;10.95;6.38;;;;;;;;;;5048956;28;20029;-56
2023/11/15 12:23:59;;;;;;;12.30;7.00;;;;;;;;;;5049512;28;20017;-58
2023/11/15 12:26:26;;;;;;;12.93;7.78;;;;;;;;;;5031873;28;20112;-57
2023/11/15 12:28:52;;;;;;;13.10;7.55;;;;;;;;;;5049903;28;20092;-58
2023/11/15 12:31:19;;;;;;;17.42;8.80;;;;;;;;;;5048872;28;20454;-56
2023/11/15 12:33:45;;;;;;;13.77;6.82;;;;;;;;;;5050173;28;20052;-58
2023/11/15 12:36:11;;;;;;;15.15;8.25;;;;;;;;;;5049576;28;20391;-56
2023/11/15 12:38:53;;;;;;;10.02;5.90;;;;;;;;;;5050240;28;20036;-57
2023/11/15 12:41:19;;;;;;;10.55;6.32;;;;;;;;;;5066418;28;20063;-57
2023/11/15 12:43:45;;;;;;;16.80;6.80;;;;;;;;;;5069522;28;20116;-57
2023/11/15 12:46:15;;;;;;;11.95;6.63;;;;;;;;;;5069326;28;20482;-57
2023/11/15 12:48:41;;;;;;;15.48;6.80;;;;;;;;;;5069385;28;20123;-59
2023/11/15 12:51:08;;;;;;;12.30;7.07;;;;;;;;;;5068548;28;20447;-57
2023/11/15 12:53:41;;;;;;;10.75;6.25;;;;;;;;;;5069405;28;20108;-57
2023/11/15 12:56:14;;;;;;;16.50;8.38;;;;;;;;;;5051376;28;20027;-58
2023/11/15 12:58:40;;;;;;;12.75;7.00;;;;;;;;;;5069613;28;20535;-60
2023/11/15 13:01:07;;;;;;;12.15;7.70;;;;;;;;;;5068890;28;20056;-58
2023/11/15 13:03:35;;;;;;;15.18;7.15;;;;;;;;;;5069451;28;20031;-57
2023/11/15 13:06:10;;;;;;;10.90;6.28;;;;;;;;;;5069829;28;20107;-58
2023/11/15 13:08:42;;;;;;;16.15;7.80;;;;;;;;;;5069665;28;20060;-58
2023/11/15 13:11:14;;;;;;;14.82;7.88;;;;;;;;;;5070348;28;20025;-58
2023/11/15 13:13:41;;;;;;;13.32;7.65;;;;;;;;;;4707923;28;9999738;-59
2023/11/15 13:16:12;;;;;;;12.43;6.82;;;;;;;;;;5053463;28;20024;-59
2023/11/15 13:18:39;;;;;;;13.73;6.72;;;;;;;;;;5054623;28;20058;-58
2023/11/15 13:21:07;;;;;;;11.90;6.63;;;;;;;;;;5027614;28;20052;-58
2023/11/15 13:23:36;;;;;;;12.25;7.07;;;;;;;;;;5061607;28;20163;-57
2023/11/15 13:26:04;;;;;;;12.48;7.20;;;;;;;;;;5065805;28;20096;-55
2023/11/15 13:28:34;;;;;;;11.90;6.90;;;;;;;;;;5048215;28;20058;-58
2023/11/15 13:31:01;;;;;;;11.80;6.90;;;;;;;;;;5065323;28;20031;-58
2023/11/15 13:33:27;;;;;;;11.15;6.80;;;;;;;;;;5066104;28;20033;-59
2023/11/15 13:35:53;;;;;;;13.15;7.70;;;;;;;;;;5066491;28;20037;-57
2023/11/15 13:38:20;;;;;;;13.07;7.88;;;;;;;;;;5067037;28;20059;-59
2023/11/15 13:40:46;;;;;;;13.10;7.45;;;;;;;;;;5066397;28;20037;-59
2023/11/15 13:43:12;;;;;;;13.30;7.70;;;;;;;;;;5072246;28;20064;-60
2023/11/15 13:45:38;;;;;;;13.05;7.70;;;;;;;;;;5070641;28;20059;-56
2023/11/15 13:48:04;;;;;;;12.68;7.32;;;;;;;;;;5069467;28;20032;-57
2023/11/15 13:50:30;;;;;;;13.50;7.35;;;;;;;;;;5066216;28;20036;-58
2023/11/15 13:52:57;;;;;;;18.20;8.88;;;;;;;;;;5065767;28;20085;-61
2023/11/15 13:55:23;;;;;;;13.57;7.63;;;;;;;;;;5071253;28;20044;-57
2023/11/15 13:57:50;;;;;;;11.73;6.80;;;;;;;;;;5070720;28;20017;-58
2023/11/15 14:00:23;;;;;;;11.50;6.70;;;;;;;;;;5071759;28;20410;-60
2023/11/15 14:02:49;;;;;;;11.57;8.02;;;;;;;;;;5072539;28;20031;-58
2023/11/15 14:05:18;;;;;;;24.80;8.27;;;;;;;;;;5072606;28;20466;-59
2023/11/15 14:07:45;;;;;;;11.45;7.03;;;;;;;;;;5072354;28;20025;-59
2023/11/15 14:10:12;;;;;;;11.60;7.05;;;;;;;;;;5071768;28;20021;-56
2023/11/15 14:12:39;;;;;;;11.27;6.97;;;;;;;;;;5072891;28;20033;-57
2023/11/15 14:15:08;;;;;;;11.82;7.18;;;;;;;;;;5051309;28;20183;-55
2023/11/15 14:17:39;;;;;;;12.20;7.13;;;;;;;;;;5052310;28;20055;-59
2023/11/15 14:20:06;;;;;;;11.98;6.97;;;;;;;;;;5051470;28;20510;-57
2023/11/15 14:22:32;;;;;;;11.98;6.80;;;;;;;;;;5051809;28;20429;-58
2023/11/15 14:24:59;;;;;;;11.57;6.68;;;;;;;;;;5051827;28;20029;-60